createdAt,value
2023-01-10T00:00:16.142Z,10.02
2023-01-10T00:05:41.141Z,10.00
2023-01-10T00:10:45.183Z,9.89
2023-01-10T00:15:49.511Z,9.95
2023-01-10T00:20:53.247Z,9.85
2023-01-10T00:25:57.073Z,9.76
2023-01-10T00:31:02.376Z,9.82
2023-01-10T00:36:09.101Z,9.90
2023-01-10T00:41:32.713Z,10.03
2023-01-10T00:46:36.458Z,9.98
2023-01-10T00:51:40.070Z,9.95
2023-01-10T00:56:43.685Z,9.83
2023-01-10T01:01:47.612Z,9.81
2023-01-10T01:06:51.621Z,9.75
2023-01-10T01:11:56.616Z,9.73
2023-01-10T01:17:00.239Z,9.75
2023-01-10T01:22:03.960Z,9.72
2023-01-10T01:27:07.477Z,9.66
2023-01-10T01:32:11.155Z,9.61
2023-01-10T01:37:15.262Z,9.59
2023-01-10T01:42:30.947Z,9.62
2023-01-10T01:47:41.916Z,9.52
2023-01-10T01:52:49.004Z,9.47
2023-01-10T01:57:58.136Z,9.40
2023-01-10T02:03:03.730Z,9.40
2023-01-10T02:08:08.635Z,9.54
2023-01-10T02:13:16.697Z,9.72
2023-01-10T02:18:22.685Z,9.82
2023-01-10T02:24:01.291Z,9.89
2023-01-10T02:29:32.153Z,9.97
2023-01-10T02:35:24.723Z,9.98
2023-01-10T02:40:50.691Z,9.90
2023-01-10T02:46:14.082Z,9.87
2023-01-10T02:51:24.341Z,9.97
2023-01-10T02:56:49.838Z,9.97
2023-01-10T03:02:03.835Z,9.87
2023-01-10T03:07:44.146Z,9.95
2023-01-10T03:13:16.070Z,11.50
2023-01-10T03:18:39.533Z,12.84
2023-01-10T03:23:45.254Z,13.39
2023-01-10T03:29:01.155Z,11.86
2023-01-10T03:34:05.302Z,9.76
2023-01-10T03:39:48.111Z,9.62
2023-01-10T03:45:09.624Z,12.10
2023-01-10T03:50:24.883Z,12.97
2023-01-10T03:55:30.405Z,12.10
2023-01-10T04:00:34.360Z,9.95
2023-01-10T04:05:38.306Z,8.47
2023-01-10T04:10:42.230Z,8.28
2023-01-10T04:15:46.016Z,10.87
2023-01-10T04:20:52.082Z,12.38
2023-01-10T04:25:56.052Z,12.21
2023-01-10T04:30:59.892Z,9.66
2023-01-10T04:36:03.636Z,8.62
2023-01-10T04:41:07.381Z,10.96
2023-01-10T04:46:11.207Z,12.33
2023-01-10T04:51:15.089Z,11.77
2023-01-10T04:56:21.885Z,9.24
2023-01-10T05:01:27.169Z,7.91
2023-01-10T05:06:31.033Z,9.88
2023-01-10T05:11:34.729Z,11.52
2023-01-10T05:16:38.537Z,12.42
2023-01-10T05:21:42.339Z,11.24
2023-01-10T05:26:46.952Z,8.92
2023-01-10T05:31:52.452Z,8.64
2023-01-10T05:36:56.094Z,10.81
2023-01-10T05:42:00.686Z,11.63
2023-01-10T05:47:04.581Z,12.24
2023-01-10T05:52:08.710Z,10.30
2023-01-10T05:57:12.686Z,8.42
2023-01-10T06:02:16.368Z,8.46
2023-01-10T06:07:20.007Z,10.33
2023-01-10T06:12:23.674Z,11.37
2023-01-10T06:17:27.962Z,11.79
2023-01-10T06:22:31.983Z,11.55
2023-01-10T06:27:35.716Z,9.58
2023-01-10T06:32:39.589Z,9.61
2023-01-10T06:37:43.576Z,11.33
2023-01-10T06:42:47.188Z,11.17
2023-01-10T06:47:50.894Z,8.83
2023-01-10T06:53:00.581Z,8.97
2023-01-10T06:58:05.398Z,10.57
2023-01-10T07:03:10.330Z,11.26
2023-01-10T07:08:13.801Z,11.12
2023-01-10T07:13:17.358Z,9.17
2023-01-10T07:18:21.247Z,8.52
2023-01-10T07:23:24.847Z,10.20
2023-01-10T07:28:28.617Z,10.82
2023-01-10T07:33:32.781Z,10.90
2023-01-10T07:38:38.371Z,11.53
2023-01-10T07:43:42.058Z,11.36
2023-01-10T07:48:47.258Z,8.96
2023-01-10T07:53:51.123Z,9.00
2023-01-10T07:58:54.854Z,10.89
2023-01-10T08:03:59.275Z,11.52
2023-01-10T08:09:05.649Z,9.79
2023-01-10T08:14:09.554Z,8.05
2023-01-10T08:19:17.267Z,7.72
2023-01-10T08:24:20.865Z,9.76
2023-01-10T08:29:24.715Z,10.92
2023-01-10T08:34:28.405Z,11.39
2023-01-10T08:39:32.105Z,11.85
2023-01-10T08:44:36.074Z,9.99
2023-01-10T08:49:39.747Z,8.19
2023-01-10T08:54:44.224Z,8.25
2023-01-10T08:59:48.088Z,10.57
2023-01-10T09:04:52.028Z,12.09
2023-01-10T09:09:55.677Z,10.87
2023-01-10T09:14:59.590Z,9.16
2023-01-10T09:20:10.539Z,11.27
2023-01-10T09:25:14.136Z,11.80
2023-01-10T09:30:18.255Z,9.75
2023-01-10T09:35:24.333Z,8.33
2023-01-10T09:41:22.076Z,8.63
2023-01-10T09:47:08.385Z,11.67
2023-01-10T09:52:33.980Z,12.06
2023-01-10T09:57:38.034Z,9.76
2023-01-10T10:02:48.424Z,8.38
2023-01-10T10:08:02.657Z,9.46
2023-01-10T10:13:26.460Z,11.94
2023-01-10T10:19:02.250Z,12.86
2023-01-10T10:24:33.270Z,11.11
2023-01-10T10:29:43.250Z,9.18
2023-01-10T10:35:09.942Z,10.48
2023-01-10T10:40:33.534Z,12.12
2023-01-10T10:45:44.883Z,12.02
2023-01-10T10:51:26.105Z,10.49
2023-01-10T10:56:30.915Z,11.92
2023-01-10T11:01:34.933Z,11.90
2023-01-10T11:06:46.328Z,9.87
2023-01-10T11:11:52.357Z,11.19
2023-01-10T11:17:28.340Z,11.80
2023-01-10T11:22:47.633Z,11.38
2023-01-10T11:28:01.330Z,9.20
2023-01-10T11:33:20.414Z,10.71
2023-01-10T11:38:25.143Z,11.21
2023-01-10T11:43:40.561Z,11.02
2023-01-10T11:49:06.195Z,10.83
2023-01-10T11:54:29.456Z,10.86
2023-01-10T11:59:33.834Z,11.14
2023-01-10T12:04:47.524Z,11.86
2023-01-10T12:10:04.260Z,11.18
2023-01-10T12:15:30.151Z,9.47
2023-01-10T12:20:48.909Z,10.77
2023-01-10T12:26:10.674Z,11.87
2023-01-10T12:31:16.769Z,11.86
2023-01-10T12:37:31.042Z,9.78
2023-01-10T12:43:32.760Z,9.15
2023-01-10T12:48:54.165Z,10.49
2023-01-10T12:54:09.158Z,11.89
2023-01-10T12:59:37.157Z,12.20
2023-01-10T13:04:47.577Z,10.23
2023-01-10T13:09:52.155Z,10.30
2023-01-10T13:15:21.716Z,11.99
2023-01-10T13:20:39.877Z,11.39
2023-01-10T13:25:56.497Z,10.11
2023-01-10T13:31:32.865Z,10.62
2023-01-10T13:36:45.018Z,10.76
2023-01-10T13:42:26.421Z,11.10
2023-01-10T13:47:46.811Z,11.04
2023-01-10T13:52:52.947Z,9.58
2023-01-10T13:58:01.866Z,8.00
2023-01-10T14:03:06.848Z,7.70
2023-01-10T14:08:18.496Z,8.94
2023-01-10T14:13:23.906Z,9.41
2023-01-10T14:18:42.075Z,9.61
2023-01-10T14:23:53.527Z,9.73
2023-01-10T14:29:01.578Z,9.59
2023-01-10T14:34:18.472Z,9.49
2023-01-10T14:39:24.700Z,9.50
2023-01-10T14:44:37.691Z,9.32
2023-01-10T14:49:54.317Z,9.09
2023-01-10T14:55:22.854Z,8.95
2023-01-10T15:00:37.146Z,8.84
2023-01-10T15:05:50.451Z,8.76
2023-01-10T15:11:08.941Z,8.74
2023-01-10T15:16:23.421Z,8.65
2023-01-10T15:21:27.864Z,8.53
2023-01-10T15:26:33.824Z,8.27
2023-01-10T15:31:40.349Z,8.35
2023-01-10T15:36:51.709Z,8.29
2023-01-10T15:42:10.383Z,8.14
2023-01-10T15:47:49.990Z,8.03
2023-01-10T15:53:05.435Z,8.06
2023-01-10T15:58:36.815Z,8.04
2023-01-10T16:03:57.162Z,7.89
2023-01-10T16:09:06.428Z,7.86
2023-01-10T16:14:10.123Z,7.81
2023-01-10T16:19:14.746Z,7.87
2023-01-10T16:24:25.858Z,7.91
2023-01-10T16:29:30.168Z,7.91
2023-01-10T16:34:34.911Z,7.89
2023-01-10T16:39:40.612Z,7.96
2023-01-10T16:44:45.896Z,8.11
2023-01-10T16:49:49.649Z,8.10
2023-01-10T16:54:53.933Z,8.08
2023-01-10T16:59:57.665Z,7.51
2023-01-10T17:05:01.414Z,7.59
2023-01-10T17:10:06.461Z,7.77
2023-01-10T17:15:15.772Z,7.71
2023-01-10T17:20:20.615Z,7.74
2023-01-10T17:25:25.314Z,7.86
2023-01-10T17:30:28.940Z,8.01
2023-01-10T17:35:34.186Z,8.12
2023-01-10T17:40:45.982Z,8.30
2023-01-10T17:45:52.098Z,8.31
2023-01-10T17:51:00.185Z,8.24
2023-01-10T17:56:32.240Z,8.14
2023-01-10T18:01:36.500Z,8.04
2023-01-10T18:06:40.512Z,7.98
2023-01-10T18:11:45.575Z,7.85
2023-01-10T18:16:50.040Z,7.83
2023-01-10T18:21:53.883Z,7.77
2023-01-10T18:26:58.580Z,7.69
2023-01-10T18:32:02.728Z,7.73
2023-01-10T18:37:06.703Z,7.70
2023-01-10T18:42:12.222Z,7.66
2023-01-10T18:47:16.141Z,8.91
2023-01-10T18:52:21.695Z,9.91
2023-01-10T18:57:26.043Z,9.63
2023-01-10T19:02:30.182Z,9.65
2023-01-10T19:07:34.308Z,9.54
2023-01-10T19:12:41.052Z,9.49
2023-01-10T19:17:46.592Z,9.81
2023-01-10T19:22:50.288Z,9.61
2023-01-10T19:27:54.539Z,9.54
2023-01-10T19:33:17.549Z,9.58
2023-01-10T19:38:21.522Z,9.27
2023-01-10T19:43:26.893Z,9.09
2023-01-10T19:48:30.918Z,8.77
2023-01-10T19:53:39.486Z,8.69
2023-01-10T19:58:43.074Z,9.43
2023-01-10T20:03:49.290Z,9.77
2023-01-10T20:08:55.293Z,9.31
2023-01-10T20:14:02.277Z,8.71
2023-01-10T20:19:14.381Z,8.60
2023-01-10T20:24:21.842Z,8.62
2023-01-10T20:29:31.082Z,8.42
2023-01-10T20:34:35.384Z,8.36
2023-01-10T20:39:40.238Z,8.51
2023-01-10T20:44:44.034Z,8.28
2023-01-10T20:49:48.458Z,8.19
2023-01-10T20:54:54.990Z,8.35
2023-01-10T21:00:00.007Z,9.20
2023-01-10T21:05:04.369Z,9.49
2023-01-10T21:10:09.472Z,11.00
2023-01-10T21:15:13.625Z,11.44
2023-01-10T21:20:17.726Z,11.95
2023-01-10T21:25:21.635Z,12.07
2023-01-10T21:30:25.581Z,9.71
2023-01-10T21:35:29.870Z,9.18
2023-01-10T21:40:35.475Z,11.36
2023-01-10T21:45:42.626Z,12.34
2023-01-10T21:50:52.131Z,10.98
2023-01-10T21:56:00.405Z,9.03
2023-01-10T22:01:04.302Z,10.80
2023-01-10T22:06:08.688Z,11.74
2023-01-10T22:11:14.390Z,12.27
2023-01-10T22:16:20.348Z,12.37
2023-01-10T22:21:24.180Z,9.90
2023-01-10T22:26:28.877Z,9.52
2023-01-10T22:31:32.965Z,11.12
2023-01-10T22:36:37.721Z,11.81
2023-01-10T22:41:41.636Z,11.46
2023-01-10T22:46:46.554Z,9.55
2023-01-10T22:51:51.448Z,11.00
2023-01-10T22:56:55.236Z,12.01
2023-01-10T23:01:58.983Z,11.64
2023-01-10T23:07:03.042Z,9.34
2023-01-10T23:12:08.734Z,10.10
2023-01-10T23:17:12.715Z,11.49
2023-01-10T23:22:16.872Z,10.91
2023-01-10T23:27:20.937Z,9.81
2023-01-10T23:32:24.768Z,11.56
2023-01-10T23:37:28.714Z,11.43
2023-01-10T23:42:33.178Z,10.33
2023-01-10T23:47:37.675Z,11.89
2023-01-10T23:52:41.290Z,11.38
2023-01-10T23:57:45.732Z,9.58
